UAL8154 KSFO-KLAX
Flight info
| Callsign | UAL8154 |
|---|---|
| Flight time | 0h 59m |
| Altitude | 35000 |
| Route | WESLA5 SUSEY EBAYE BURGL IRNMN2 |
| Aircraft | B38M/M-SDE1FGHILORVWXY/HB1 |
Departure
| Time | 2026-04-21 02:15 |
|---|---|
| Airport | San Francisco International Airport (KSFO) |
Arrival
| Time | 2026-04-21 03:15 |
|---|---|
| Airport | Los Angeles International Airport (KLAX) |
| Time | Latitude | Longitude | Altitude | Speed | Heading |
|---|---|---|---|---|---|
| 2026-04-21 01:48 | 37.61827 | -122.38083 | 26 ft | 0 kts | 234° |
| 2026-04-21 02:01 | 37.61831 | -122.38077 | 23 ft | 2 kts | 231° |
| 2026-04-21 02:02 | 37.61843 | -122.38064 | 25 ft | 3 kts | 189° |
| 2026-04-21 02:02 | 37.61858 | -122.38068 | 26 ft | 3 kts | 139° |
| 2026-04-21 02:02 | 37.61867 | -122.38079 | 25 ft | 0 kts | 132° |
| 2026-04-21 02:02 | 37.61895 | -122.38047 | 24 ft | 0 kts | 123° |
| 2026-04-21 02:03 | 37.61898 | -122.38045 | 23 ft | 0 kts | 119° |
| 2026-04-21 02:09 | 37.61894 | -122.38035 | 27 ft | 3 kts | 116° |
| 2026-04-21 02:09 | 37.61883 | -122.38005 | 24 ft | 5 kts | 117° |
| 2026-04-21 02:09 | 37.61861 | -122.37952 | 24 ft | 9 kts | 117° |
| 2026-04-21 02:09 | 37.61829 | -122.37865 | 20 ft | 13 kts | 110° |
| 2026-04-21 02:10 | 37.61794 | -122.37749 | 20 ft | 15 kts | 110° |
| 2026-04-21 02:10 | 37.61754 | -122.37626 | 23 ft | 15 kts | 112° |
| 2026-04-21 02:10 | 37.61712 | -122.37497 | 23 ft | 17 kts | 114° |
| 2026-04-21 02:10 | 37.61659 | -122.37366 | 24 ft | 16 kts | 121° |
| 2026-04-21 02:11 | 37.61587 | -122.37197 | 24 ft | 18 kts | 117° |
| 2026-04-21 02:11 | 37.61550 | -122.37107 | 28 ft | 14 kts | 118° |
| 2026-04-21 02:11 | 37.61502 | -122.36994 | 27 ft | 15 kts | 117° |
| 2026-04-21 02:11 | 37.61451 | -122.36898 | 23 ft | 11 kts | 136° |
| 2026-04-21 02:12 | 37.61390 | -122.36817 | 21 ft | 14 kts | 127° |
| 2026-04-21 02:12 | 37.61334 | -122.36707 | 23 ft | 16 kts | 119° |
| 2026-04-21 02:12 | 37.61278 | -122.36574 | 17 ft | 19 kts | 114° |
| 2026-04-21 02:12 | 37.61218 | -122.36425 | 18 ft | 19 kts | 116° |
| 2026-04-21 02:13 | 37.61155 | -122.36280 | 21 ft | 19 kts | 118° |
| 2026-04-21 02:13 | 37.61092 | -122.36128 | 20 ft | 19 kts | 117° |
| 2026-04-21 02:13 | 37.61049 | -122.35983 | 21 ft | 9 kts | 82° |
| 2026-04-21 02:13 | 37.61087 | -122.35924 | 21 ft | 9 kts | 30° |
| 2026-04-21 02:14 | 37.61134 | -122.35900 | 20 ft | 6 kts | 24° |
| 2026-04-21 02:14 | 37.61165 | -122.35895 | 21 ft | 3 kts | 345° |
| 2026-04-21 02:14 | 37.61203 | -122.35927 | 20 ft | 13 kts | 313° |
| 2026-04-21 02:14 | 37.61296 | -122.36140 | 16 ft | 62 kts | 298° |
| 2026-04-21 02:15 | 37.61645 | -122.36969 | 25 ft | 148 kts | 297° |
| 2026-04-21 02:15 | 37.62211 | -122.38257 | 480 ft | 188 kts | 298° |
| 2026-04-21 02:15 | 37.62878 | -122.39915 | 940 ft | 239 kts | 291° |
| 2026-04-21 02:15 | 37.63798 | -122.42029 | 1104 ft | 310 kts | 298° |
| 2026-04-21 02:16 | 37.64995 | -122.44404 | 2319 ft | 305 kts | 297° |
| 2026-04-21 02:16 | 37.65876 | -122.46557 | 3236 ft | 262 kts | 289° |
| 2026-04-21 02:16 | 37.66674 | -122.48632 | 2989 ft | 255 kts | 284° |
| 2026-04-21 02:16 | 37.66911 | -122.50792 | 3037 ft | 248 kts | 258° |
| 2026-04-21 02:17 | 37.66341 | -122.52787 | 2991 ft | 241 kts | 234° |
| 2026-04-21 02:17 | 37.65168 | -122.54244 | 2975 ft | 238 kts | 209° |
| 2026-04-21 02:17 | 37.63577 | -122.54843 | 3380 ft | 242 kts | 184° |
| 2026-04-21 02:17 | 37.61930 | -122.54502 | 4761 ft | 244 kts | 161° |
| 2026-04-21 02:18 | 37.60396 | -122.53602 | 6010 ft | 249 kts | 160° |
| 2026-04-21 02:18 | 37.58793 | -122.52745 | 7208 ft | 251 kts | 162° |
| 2026-04-21 02:18 | 37.57188 | -122.51885 | 8502 ft | 250 kts | 162° |
| 2026-04-21 02:18 | 37.55583 | -122.51019 | 9833 ft | 252 kts | 164° |
| 2026-04-21 02:19 | 37.53955 | -122.50146 | 10848 ft | 261 kts | 163° |
| 2026-04-21 02:19 | 37.52221 | -122.49218 | 11530 ft | 279 kts | 162° |
| 2026-04-21 02:19 | 37.50398 | -122.48229 | 12333 ft | 290 kts | 162° |
| 2026-04-21 02:19 | 37.48670 | -122.46875 | 13444 ft | 300 kts | 144° |
| 2026-04-21 02:20 | 37.47220 | -122.44965 | 14383 ft | 305 kts | 141° |
| 2026-04-21 02:20 | 37.45749 | -122.43003 | 15094 ft | 309 kts | 141° |
| 2026-04-21 02:20 | 37.44273 | -122.41022 | 15977 ft | 312 kts | 141° |
| 2026-04-21 02:20 | 37.42781 | -122.39005 | 16761 ft | 317 kts | 141° |
| 2026-04-21 02:21 | 37.41262 | -122.36946 | 17510 ft | 324 kts | 141° |
| 2026-04-21 02:21 | 37.39724 | -122.34857 | 18334 ft | 328 kts | 141° |
| 2026-04-21 02:21 | 37.38157 | -122.32730 | 18895 ft | 335 kts | 141° |
| 2026-04-21 02:21 | 37.36567 | -122.30571 | 19594 ft | 338 kts | 141° |
| 2026-04-21 02:22 | 37.34953 | -122.28381 | 20197 ft | 344 kts | 141° |
| 2026-04-21 02:22 | 37.33318 | -122.26165 | 20840 ft | 348 kts | 141° |
| 2026-04-21 02:22 | 37.31660 | -122.23920 | 21478 ft | 352 kts | 142° |
| 2026-04-21 02:22 | 37.29983 | -122.21648 | 22099 ft | 357 kts | 142° |
| 2026-04-21 02:23 | 37.28282 | -122.19346 | 22690 ft | 362 kts | 142° |
| 2026-04-21 02:23 | 37.26555 | -122.17010 | 23267 ft | 368 kts | 142° |
| 2026-04-21 02:23 | 37.24801 | -122.14641 | 23804 ft | 373 kts | 142° |
| 2026-04-21 02:23 | 37.23030 | -122.12249 | 24357 ft | 375 kts | 142° |
| 2026-04-21 02:24 | 37.21249 | -122.09848 | 24900 ft | 378 kts | 142° |
| 2026-04-21 02:24 | 37.19449 | -122.07422 | 25439 ft | 381 kts | 142° |
| 2026-04-21 02:24 | 37.17633 | -122.04977 | 25890 ft | 385 kts | 142° |
| 2026-04-21 02:24 | 37.15799 | -122.02508 | 26395 ft | 388 kts | 142° |
| 2026-04-21 02:25 | 37.13952 | -122.00024 | 26878 ft | 391 kts | 142° |
| 2026-04-21 02:25 | 37.12085 | -121.97517 | 27345 ft | 395 kts | 142° |
| 2026-04-21 02:25 | 37.10843 | -121.95847 | 27672 ft | 397 kts | 142° |
| 2026-04-21 02:25 | 37.08004 | -121.92037 | 28350 ft | 401 kts | 142° |
| 2026-04-21 02:26 | 37.06094 | -121.89475 | 28817 ft | 404 kts | 142° |
| 2026-04-21 02:26 | 37.04171 | -121.86900 | 29283 ft | 407 kts | 142° |
| 2026-04-21 02:26 | 37.02229 | -121.84300 | 29681 ft | 410 kts | 142° |
| 2026-04-21 02:26 | 37.00275 | -121.81687 | 30089 ft | 413 kts | 142° |
| 2026-04-21 02:27 | 36.98305 | -121.79055 | 30406 ft | 416 kts | 142° |
| 2026-04-21 02:27 | 36.96317 | -121.76400 | 30683 ft | 421 kts | 142° |
| 2026-04-21 02:27 | 36.94312 | -121.73726 | 31080 ft | 422 kts | 142° |
| 2026-04-21 02:27 | 36.92297 | -121.71039 | 31435 ft | 425 kts | 142° |
| 2026-04-21 02:28 | 36.90955 | -121.69251 | 31670 ft | 426 kts | 142° |
| 2026-04-21 02:28 | 36.88244 | -121.65644 | 32292 ft | 425 kts | 142° |
| 2026-04-21 02:28 | 36.86219 | -121.62951 | 32773 ft | 425 kts | 142° |
| 2026-04-21 02:28 | 36.84191 | -121.60257 | 32935 ft | 427 kts | 142° |
| 2026-04-21 02:29 | 36.82163 | -121.57561 | 32942 ft | 425 kts | 142° |
| 2026-04-21 02:29 | 36.78110 | -121.52192 | 32914 ft | 424 kts | 142° |
| 2026-04-21 02:30 | 36.74738 | -121.47714 | 32934 ft | 427 kts | 142° |
| 2026-04-21 02:30 | 36.70669 | -121.42348 | 32923 ft | 426 kts | 142° |
| 2026-04-21 02:31 | 36.66559 | -121.36926 | 32931 ft | 428 kts | 141° |
| 2026-04-21 02:31 | 36.62469 | -121.31538 | 32945 ft | 428 kts | 141° |
| 2026-04-21 02:32 | 36.58376 | -121.26156 | 32937 ft | 428 kts | 141° |
| 2026-04-21 02:32 | 36.54281 | -121.20775 | 32938 ft | 429 kts | 141° |
| 2026-04-21 02:33 | 36.50119 | -121.15408 | 32940 ft | 429 kts | 145° |
| 2026-04-21 02:33 | 36.45972 | -121.09982 | 32990 ft | 434 kts | 140° |
| 2026-04-21 02:34 | 36.41946 | -121.04376 | 32974 ft | 436 kts | 138° |
| 2026-04-21 02:34 | 36.37999 | -120.98658 | 32967 ft | 436 kts | 139° |
| 2026-04-21 02:35 | 36.34031 | -120.92963 | 32964 ft | 437 kts | 139° |
| 2026-04-21 02:35 | 36.30051 | -120.87265 | 32984 ft | 437 kts | 139° |
| 2026-04-21 02:36 | 36.26065 | -120.81575 | 32982 ft | 437 kts | 139° |
| 2026-04-21 02:36 | 36.22075 | -120.75875 | 32977 ft | 439 kts | 139° |
| 2026-04-21 02:37 | 36.18069 | -120.70167 | 32973 ft | 439 kts | 139° |
| 2026-04-21 02:37 | 36.14063 | -120.64472 | 32986 ft | 438 kts | 139° |
| 2026-04-21 02:38 | 36.10058 | -120.58789 | 32984 ft | 439 kts | 139° |
| 2026-04-21 02:38 | 36.06045 | -120.53100 | 32989 ft | 440 kts | 138° |
| 2026-04-21 02:39 | 36.02019 | -120.47404 | 32984 ft | 440 kts | 138° |
| 2026-04-21 02:39 | 35.97987 | -120.41708 | 33006 ft | 441 kts | 138° |
| 2026-04-21 02:40 | 35.93944 | -120.36009 | 32979 ft | 442 kts | 138° |
| 2026-04-21 02:40 | 35.89888 | -120.30298 | 32995 ft | 443 kts | 138° |
| 2026-04-21 02:41 | 35.85509 | -120.25128 | 32986 ft | 425 kts | 155° |
| 2026-04-21 02:41 | 35.80467 | -120.21258 | 32986 ft | 427 kts | 155° |
| 2026-04-21 02:42 | 35.75406 | -120.17404 | 32981 ft | 428 kts | 155° |
| 2026-04-21 02:42 | 35.70321 | -120.13570 | 32971 ft | 429 kts | 155° |
| 2026-04-21 02:43 | 35.65236 | -120.09736 | 32979 ft | 429 kts | 154° |
| 2026-04-21 02:43 | 35.60135 | -120.05886 | 32994 ft | 430 kts | 154° |
| 2026-04-21 02:44 | 35.55032 | -120.02040 | 32987 ft | 431 kts | 155° |
| 2026-04-21 02:44 | 35.49924 | -119.98196 | 32974 ft | 430 kts | 155° |
| 2026-04-21 02:45 | 35.44818 | -119.94359 | 32984 ft | 430 kts | 155° |
| 2026-04-21 02:45 | 35.39714 | -119.90530 | 32960 ft | 430 kts | 155° |
| 2026-04-21 02:46 | 35.34594 | -119.86694 | 32973 ft | 432 kts | 155° |
| 2026-04-21 02:46 | 35.29499 | -119.82800 | 32970 ft | 433 kts | 146° |
| 2026-04-21 02:47 | 35.24784 | -119.78240 | 32995 ft | 429 kts | 150° |
| 2026-04-21 02:47 | 35.22386 | -119.76092 | 32833 ft | 425 kts | 149° |
| 2026-04-21 02:47 | 35.20022 | -119.73933 | 32570 ft | 423 kts | 149° |
| 2026-04-21 02:47 | 35.17677 | -119.71772 | 32318 ft | 421 kts | 149° |
| 2026-04-21 02:48 | 35.15342 | -119.69613 | 32047 ft | 420 kts | 149° |
| 2026-04-21 02:48 | 35.13018 | -119.67462 | 31809 ft | 419 kts | 149° |
| 2026-04-21 02:48 | 35.10695 | -119.65314 | 31559 ft | 418 kts | 149° |
| 2026-04-21 02:48 | 35.08380 | -119.63174 | 31317 ft | 417 kts | 149° |
| 2026-04-21 02:49 | 35.06071 | -119.61041 | 31090 ft | 416 kts | 149° |
| 2026-04-21 02:49 | 35.03767 | -119.58914 | 30823 ft | 415 kts | 149° |
| 2026-04-21 02:49 | 35.01466 | -119.56791 | 30583 ft | 414 kts | 149° |
| 2026-04-21 02:49 | 34.99170 | -119.54675 | 30215 ft | 413 kts | 149° |
| 2026-04-21 02:50 | 34.96887 | -119.52572 | 29691 ft | 410 kts | 149° |
| 2026-04-21 02:50 | 34.94620 | -119.50485 | 29146 ft | 406 kts | 149° |
| 2026-04-21 02:50 | 34.92377 | -119.48422 | 28639 ft | 402 kts | 149° |
| 2026-04-21 02:50 | 34.90145 | -119.46414 | 28105 ft | 397 kts | 150° |
| 2026-04-21 02:51 | 34.87901 | -119.44404 | 27557 ft | 393 kts | 150° |
| 2026-04-21 02:51 | 34.85736 | -119.42464 | 26926 ft | 395 kts | 149° |
| 2026-04-21 02:51 | 34.83510 | -119.40468 | 26182 ft | 398 kts | 149° |
| 2026-04-21 02:51 | 34.81280 | -119.38468 | 25480 ft | 398 kts | 149° |
| 2026-04-21 02:52 | 34.79030 | -119.36452 | 24778 ft | 394 kts | 149° |
| 2026-04-21 02:52 | 34.76839 | -119.34493 | 24110 ft | 389 kts | 149° |
| 2026-04-21 02:52 | 34.74669 | -119.32567 | 23447 ft | 383 kts | 150° |
| 2026-04-21 02:52 | 34.72518 | -119.30685 | 22688 ft | 378 kts | 150° |
| 2026-04-21 02:53 | 34.70404 | -119.28835 | 21955 ft | 373 kts | 150° |
| 2026-04-21 02:53 | 34.68310 | -119.27002 | 21244 ft | 368 kts | 150° |
| 2026-04-21 02:53 | 34.66247 | -119.25197 | 20529 ft | 363 kts | 150° |
| 2026-04-21 02:53 | 34.64208 | -119.23431 | 20194 ft | 359 kts | 150° |
| 2026-04-21 02:54 | 34.62176 | -119.21677 | 19879 ft | 358 kts | 150° |
| 2026-04-21 02:54 | 34.60174 | -119.19950 | 19449 ft | 347 kts | 150° |
| 2026-04-21 02:54 | 34.58243 | -119.18281 | 19167 ft | 332 kts | 150° |
| 2026-04-21 02:54 | 34.56378 | -119.16662 | 19114 ft | 329 kts | 150° |
| 2026-04-21 02:55 | 34.54542 | -119.15032 | 19015 ft | 326 kts | 150° |
| 2026-04-21 02:55 | 34.52706 | -119.13405 | 18307 ft | 326 kts | 150° |
| 2026-04-21 02:55 | 34.50880 | -119.11789 | 17552 ft | 324 kts | 150° |
| 2026-04-21 02:55 | 34.49065 | -119.10187 | 16820 ft | 323 kts | 149° |
| 2026-04-21 02:56 | 34.47255 | -119.08591 | 16197 ft | 320 kts | 149° |
| 2026-04-21 02:56 | 34.43701 | -119.05473 | 16003 ft | 314 kts | 150° |
| 2026-04-21 02:56 | 34.41924 | -119.03933 | 16007 ft | 315 kts | 150° |
| 2026-04-21 02:57 | 34.40146 | -119.02389 | 15503 ft | 312 kts | 150° |
| 2026-04-21 02:57 | 34.38382 | -119.00859 | 15033 ft | 314 kts | 149° |
| 2026-04-21 02:57 | 34.36601 | -118.99316 | 14580 ft | 316 kts | 149° |
| 2026-04-21 02:57 | 34.34812 | -118.97764 | 14175 ft | 316 kts | 149° |
| 2026-04-21 02:58 | 34.33072 | -118.96191 | 14100 ft | 308 kts | 148° |
| 2026-04-21 02:58 | 34.31358 | -118.94637 | 14025 ft | 308 kts | 148° |
| 2026-04-21 02:58 | 34.29637 | -118.93080 | 14018 ft | 309 kts | 148° |
| 2026-04-21 02:58 | 34.27937 | -118.91544 | 14018 ft | 309 kts | 148° |
| 2026-04-21 02:59 | 34.26190 | -118.89965 | 14009 ft | 309 kts | 148° |
| 2026-04-21 02:59 | 34.24476 | -118.88394 | 14002 ft | 309 kts | 148° |
| 2026-04-21 02:59 | 34.22759 | -118.86816 | 13786 ft | 310 kts | 148° |
| 2026-04-21 02:59 | 34.21044 | -118.85241 | 13025 ft | 310 kts | 147° |
| 2026-04-21 03:00 | 34.19320 | -118.83672 | 12311 ft | 310 kts | 147° |
| 2026-04-21 03:00 | 34.17629 | -118.82142 | 12086 ft | 299 kts | 147° |
| 2026-04-21 03:00 | 34.15961 | -118.80631 | 12032 ft | 300 kts | 147° |
| 2026-04-21 03:00 | 34.14295 | -118.79122 | 12003 ft | 300 kts | 147° |
| 2026-04-21 03:01 | 34.12625 | -118.77615 | 11928 ft | 300 kts | 147° |
| 2026-04-21 03:01 | 34.10949 | -118.76113 | 11303 ft | 301 kts | 147° |
| 2026-04-21 03:01 | 34.09262 | -118.74617 | 10594 ft | 301 kts | 147° |
| 2026-04-21 03:01 | 34.07577 | -118.73143 | 9895 ft | 298 kts | 147° |
| 2026-04-21 03:02 | 34.05899 | -118.71681 | 9245 ft | 295 kts | 147° |
| 2026-04-21 03:02 | 34.04275 | -118.70245 | 9105 ft | 288 kts | 143° |
| 2026-04-21 03:02 | 34.03001 | -118.68375 | 8895 ft | 293 kts | 119° |
| 2026-04-21 03:02 | 34.02504 | -118.65975 | 8952 ft | 302 kts | 97° |
| 2026-04-21 03:03 | 34.02477 | -118.63356 | 9001 ft | 304 kts | 94° |
| 2026-04-21 03:03 | 34.02479 | -118.60810 | 8995 ft | 303 kts | 95° |
| 2026-04-21 03:03 | 34.02400 | -118.58276 | 8997 ft | 303 kts | 96° |
| 2026-04-21 03:03 | 34.02309 | -118.55739 | 8998 ft | 303 kts | 96° |
| 2026-04-21 03:04 | 34.02240 | -118.54060 | 8994 ft | 302 kts | 98° |
| 2026-04-21 03:04 | 34.02030 | -118.51542 | 9004 ft | 302 kts | 100° |
| 2026-04-21 03:04 | 34.01771 | -118.49039 | 9006 ft | 301 kts | 101° |
| 2026-04-21 03:04 | 34.01498 | -118.46533 | 8894 ft | 302 kts | 101° |
| 2026-04-21 03:05 | 34.01351 | -118.44006 | 8202 ft | 306 kts | 89° |
| 2026-04-21 03:05 | 34.01672 | -118.41450 | 7459 ft | 310 kts | 82° |
| 2026-04-21 03:05 | 34.02092 | -118.38898 | 6729 ft | 311 kts | 81° |
| 2026-04-21 03:05 | 34.02502 | -118.36336 | 5982 ft | 311 kts | 82° |
| 2026-04-21 03:06 | 34.02902 | -118.33781 | 5235 ft | 309 kts | 81° |
| 2026-04-21 03:06 | 34.03292 | -118.31244 | 4509 ft | 307 kts | 81° |
| 2026-04-21 03:06 | 34.03656 | -118.28725 | 3757 ft | 304 kts | 82° |
| 2026-04-21 03:06 | 34.03935 | -118.26209 | 3017 ft | 302 kts | 83° |
| 2026-04-21 03:07 | 34.04181 | -118.23756 | 2740 ft | 285 kts | 83° |
| 2026-04-21 03:07 | 34.04412 | -118.21490 | 2728 ft | 260 kts | 83° |
| 2026-04-21 03:07 | 34.04623 | -118.19397 | 2695 ft | 247 kts | 83° |
| 2026-04-21 03:07 | 34.04705 | -118.17360 | 2636 ft | 242 kts | 99° |
| 2026-04-21 03:08 | 34.04043 | -118.15565 | 2589 ft | 228 kts | 131° |
| 2026-04-21 03:08 | 34.02767 | -118.14540 | 2626 ft | 219 kts | 163° |
| 2026-04-21 03:08 | 34.01285 | -118.14152 | 2622 ft | 218 kts | 171° |
| 2026-04-21 03:08 | 33.99790 | -118.13857 | 2603 ft | 218 kts | 172° |
| 2026-04-21 03:09 | 33.98293 | -118.13568 | 2586 ft | 218 kts | 171° |
| 2026-04-21 03:09 | 33.96794 | -118.13561 | 2564 ft | 216 kts | 196° |
| 2026-04-21 03:09 | 33.95547 | -118.14510 | 2565 ft | 215 kts | 230° |
| 2026-04-21 03:09 | 33.94952 | -118.16138 | 2566 ft | 216 kts | 261° |
| 2026-04-21 03:10 | 33.94873 | -118.17939 | 2343 ft | 212 kts | 269° |
| 2026-04-21 03:10 | 33.94875 | -118.19695 | 1930 ft | 208 kts | 269° |
| 2026-04-21 03:10 | 33.94898 | -118.21390 | 1680 ft | 192 kts | 269° |
| 2026-04-21 03:10 | 33.94913 | -118.22845 | 1673 ft | 156 kts | 269° |
| 2026-04-21 03:11 | 33.95085 | -118.24042 | 1651 ft | 142 kts | 286° |
| 2026-04-21 03:11 | 33.95180 | -118.25196 | 1635 ft | 138 kts | 263° |
| 2026-04-21 03:11 | 33.94982 | -118.26342 | 1472 ft | 138 kts | 255° |
| 2026-04-21 03:11 | 33.94813 | -118.27464 | 1209 ft | 138 kts | 263° |
| 2026-04-21 03:12 | 33.94732 | -118.28608 | 932 ft | 136 kts | 265° |
| 2026-04-21 03:12 | 33.94660 | -118.29721 | 930 ft | 133 kts | 262° |
| 2026-04-21 03:12 | 33.94531 | -118.30830 | 992 ft | 134 kts | 262° |
| 2026-04-21 03:12 | 33.94377 | -118.31939 | 1097 ft | 132 kts | 261° |
| 2026-04-21 03:13 | 33.94254 | -118.33055 | 1058 ft | 135 kts | 262° |
| 2026-04-21 03:13 | 33.94161 | -118.34183 | 879 ft | 136 kts | 262° |
| 2026-04-21 03:13 | 33.94026 | -118.35301 | 666 ft | 133 kts | 262° |
| 2026-04-21 03:13 | 33.93914 | -118.36420 | 462 ft | 135 kts | 264° |
| 2026-04-21 03:14 | 33.93803 | -118.37528 | 351 ft | 131 kts | 265° |
| 2026-04-21 03:14 | 33.93702 | -118.38596 | 143 ft | 124 kts | 264° |
| 2026-04-21 03:14 | 33.93608 | -118.39508 | 124 ft | 99 kts | 263° |
| 2026-04-21 03:14 | 33.93543 | -118.40188 | 128 ft | 65 kts | 262° |
| 2026-04-21 03:15 | 33.93490 | -118.40686 | 128 ft | 54 kts | 264° |
| 2026-04-21 03:15 | 33.93503 | -118.41063 | 127 ft | 25 kts | 288° |
| 2026-04-21 03:15 | 33.93529 | -118.41147 | 127 ft | 0 kts | 291° |
| 2026-04-21 03:16 | 33.93536 | -118.41177 | 124 ft | 9 kts | 283° |
| 2026-04-21 03:16 | 33.93546 | -118.41227 | 127 ft | 0 kts | 286° |
| 2026-04-21 03:17 | 33.93562 | -118.41247 | 124 ft | 8 kts | 326° |
| 2026-04-21 03:17 | 33.93638 | -118.41267 | 126 ft | 13 kts | 353° |
| 2026-04-21 03:18 | 33.93737 | -118.41265 | 127 ft | 14 kts | 25° |
| 2026-04-21 03:18 | 33.93748 | -118.41245 | 125 ft | 3 kts | 77° |
| 2026-04-21 03:18 | 33.93757 | -118.41171 | 126 ft | 15 kts | 81° |
| 2026-04-21 03:18 | 33.93775 | -118.41001 | 128 ft | 4 kts | 84° |
| 2026-04-21 03:19 | 33.93775 | -118.40996 | 128 ft | 2 kts | 84° |
| 2026-04-21 03:19 | 33.93779 | -118.40963 | 128 ft | 6 kts | 81° |
| 2026-04-21 03:19 | 33.93786 | -118.40901 | 128 ft | 9 kts | 83° |
| 2026-04-21 03:19 | 33.93796 | -118.40811 | 128 ft | 13 kts | 82° |
| 2026-04-21 03:20 | 33.93808 | -118.40693 | 128 ft | 16 kts | 84° |
| 2026-04-21 03:20 | 33.93827 | -118.40552 | 125 ft | 15 kts | 62° |
| 2026-04-21 03:20 | 33.93885 | -118.40532 | 127 ft | 8 kts | 348° |
| 2026-04-21 03:20 | 33.93952 | -118.40544 | 124 ft | 11 kts | 358° |
| 2026-04-21 03:21 | 33.93986 | -118.40565 | 125 ft | 4 kts | 302° |
| 2026-04-21 03:21 | 33.94000 | -118.40601 | 124 ft | 1 kts | 295° |
| 2026-04-21 03:21 | 33.94001 | -118.40603 | 124 ft | 0 kts | 295° |